createdAt,value
2023-01-17T00:01:54.942Z,101182.22
2023-01-17T00:04:43.294Z,101171.00
2023-01-17T00:07:33.263Z,101183.75
2023-01-17T00:10:08.982Z,101187.84
2023-01-17T00:12:40.649Z,101185.38
2023-01-17T00:15:13.864Z,101185.59
2023-01-17T00:17:44.577Z,101197.16
2023-01-17T00:20:34.941Z,101196.00
2023-01-17T00:23:40.015Z,101194.69
2023-01-17T00:26:18.934Z,101205.81
2023-01-17T00:28:51.828Z,101207.47
2023-01-17T00:31:40.213Z,101207.47
2023-01-17T00:34:10.768Z,101206.47
2023-01-17T00:36:41.127Z,101211.69
2023-01-17T00:39:11.909Z,101215.72
2023-01-17T00:41:42.572Z,101215.59
2023-01-17T00:44:32.587Z,101217.28
2023-01-17T00:47:21.664Z,101212.25
2023-01-17T00:50:10.558Z,101211.38
2023-01-17T00:52:59.453Z,101210.91
2023-01-17T00:55:48.365Z,101214.06
2023-01-17T00:58:36.998Z,101216.28
2023-01-17T01:01:27.915Z,101217.44
2023-01-17T01:04:16.469Z,101218.97
2023-01-17T01:07:08.013Z,101215.28
2023-01-17T01:09:56.662Z,101217.66
2023-01-17T01:12:45.289Z,101215.78
2023-01-17T01:15:34.351Z,101220.97
2023-01-17T01:18:41.412Z,101214.44
2023-01-17T01:21:48.838Z,101225.72
2023-01-17T01:24:38.883Z,101210.97
2023-01-17T01:27:28.651Z,101216.00
2023-01-17T01:30:17.729Z,101206.78
2023-01-17T01:33:06.428Z,101209.97
2023-01-17T01:35:39.529Z,101211.00
2023-01-17T01:38:10.319Z,101208.97
2023-01-17T01:40:48.719Z,101209.66
2023-01-17T01:43:21.912Z,101219.41
2023-01-17T01:45:56.331Z,101207.97
2023-01-17T01:48:44.954Z,101196.53
2023-01-17T01:51:21.044Z,101196.53
2023-01-17T01:53:54.964Z,101198.22
2023-01-17T01:56:25.728Z,101195.88
2023-01-17T01:58:57.360Z,101201.25
2023-01-17T02:01:27.856Z,101181.59
2023-01-17T02:03:58.657Z,101187.84
2023-01-17T02:06:32.260Z,101187.16
2023-01-17T02:09:07.045Z,101175.00
2023-01-17T02:11:39.459Z,101176.00
2023-01-17T02:14:17.412Z,101168.56
2023-01-17T02:17:14.900Z,101167.34
2023-01-17T02:19:58.992Z,101170.59
2023-01-17T02:22:54.411Z,101165.50
2023-01-17T02:25:49.629Z,101160.47
2023-01-17T02:28:35.114Z,101172.75
2023-01-17T02:31:48.021Z,101164.53
2023-01-17T02:34:37.209Z,101153.75
2023-01-17T02:37:16.328Z,101152.53
2023-01-17T02:40:07.463Z,101134.81
2023-01-17T02:42:46.033Z,101132.31
2023-01-17T02:45:19.084Z,101131.63
2023-01-17T02:47:52.766Z,101141.19
2023-01-17T02:50:26.833Z,101122.66
2023-01-17T02:53:34.220Z,101104.16
2023-01-17T02:56:33.701Z,101116.56
2023-01-17T02:59:31.740Z,101117.75
2023-01-17T03:02:12.573Z,101115.22
2023-01-17T03:04:53.338Z,101114.84
2023-01-17T03:07:28.108Z,101106.47
2023-01-17T03:10:02.294Z,101109.53
2023-01-17T03:12:38.729Z,101100.66
2023-01-17T03:15:16.930Z,101106.81
2023-01-17T03:17:50.949Z,101097.34
2023-01-17T03:20:22.631Z,101091.91
2023-01-17T03:22:53.298Z,101097.94
2023-01-17T03:25:24.105Z,101088.66
2023-01-17T03:27:54.850Z,101088.31
2023-01-17T03:30:25.996Z,101083.00
2023-01-17T03:32:56.620Z,101073.06
2023-01-17T03:35:30.379Z,101080.66
2023-01-17T03:38:01.480Z,101068.31
2023-01-17T03:40:32.669Z,101061.81
2023-01-17T03:43:02.984Z,101062.56
2023-01-17T03:45:33.702Z,101074.44
2023-01-17T03:48:03.975Z,101081.34
2023-01-17T03:50:34.705Z,101077.63
2023-01-17T03:53:05.027Z,101057.63
2023-01-17T03:55:35.909Z,101059.31
2023-01-17T03:58:06.242Z,101052.47
2023-01-17T04:00:39.421Z,101038.25
2023-01-17T04:03:09.959Z,101037.78
2023-01-17T04:05:40.244Z,101029.63
2023-01-17T04:08:10.782Z,101035.47
2023-01-17T04:10:41.714Z,101024.59
2023-01-17T04:13:13.012Z,101025.56
2023-01-17T04:15:43.915Z,101014.44
2023-01-17T04:18:15.168Z,101008.00
2023-01-17T04:20:46.321Z,101019.81
2023-01-17T04:23:19.792Z,101017.88
2023-01-17T04:25:50.879Z,101020.28
2023-01-17T04:28:21.291Z,100992.56
2023-01-17T04:30:52.261Z,100992.00
2023-01-17T04:33:26.305Z,100984.75
2023-01-17T04:35:57.638Z,100981.38
2023-01-17T04:38:30.300Z,100982.22
2023-01-17T04:41:00.749Z,100986.09
2023-01-17T04:43:35.394Z,100967.25
2023-01-17T04:46:10.892Z,100973.03
2023-01-17T04:48:41.887Z,100971.66
2023-01-17T04:51:12.742Z,100968.00
2023-01-17T04:53:44.271Z,100957.53
2023-01-17T04:56:15.448Z,100952.53
2023-01-17T04:58:45.794Z,100954.84
2023-01-17T05:01:16.250Z,100958.38
2023-01-17T05:03:46.733Z,100944.47
2023-01-17T05:06:17.703Z,100946.53
2023-01-17T05:08:48.209Z,100939.44
2023-01-17T05:11:18.999Z,100937.78
2023-01-17T05:13:50.108Z,100945.59
2023-01-17T05:16:20.649Z,100937.66
2023-01-17T05:18:55.140Z,100943.56
2023-01-17T05:21:28.354Z,100948.97
2023-01-17T05:23:59.666Z,100943.47
2023-01-17T05:26:30.089Z,100945.53
2023-01-17T05:29:00.808Z,100951.75
2023-01-17T05:31:31.740Z,100947.38
2023-01-17T05:34:02.711Z,100938.34
2023-01-17T05:36:33.164Z,100934.63
2023-01-17T05:39:06.629Z,100938.34
2023-01-17T05:41:37.921Z,100926.25
2023-01-17T05:44:08.919Z,100927.28
2023-01-17T05:46:39.496Z,100936.66
2023-01-17T05:49:10.146Z,100928.94
2023-01-17T05:51:40.932Z,100929.09
2023-01-17T05:54:12.536Z,100923.16
2023-01-17T05:56:44.085Z,100915.44
2023-01-17T05:59:17.284Z,100920.84
2023-01-17T06:01:49.206Z,100910.88
2023-01-17T06:04:19.970Z,100904.63
2023-01-17T06:06:50.674Z,100905.09
2023-01-17T06:09:21.290Z,100908.13
2023-01-17T06:11:52.796Z,100900.59
2023-01-17T06:14:25.282Z,100897.31
2023-01-17T06:16:55.804Z,100901.81
2023-01-17T06:19:26.710Z,100899.59
2023-01-17T06:21:57.355Z,100889.44
2023-01-17T06:24:28.966Z,100886.91
2023-01-17T06:27:00.170Z,100889.88
2023-01-17T06:29:30.846Z,100903.88
2023-01-17T06:32:01.832Z,100879.81
2023-01-17T06:34:32.514Z,100881.13
2023-01-17T06:37:02.770Z,100869.03
2023-01-17T06:39:33.116Z,100874.41
2023-01-17T06:42:04.130Z,100881.44
2023-01-17T06:44:34.731Z,100888.97
2023-01-17T06:47:05.635Z,100897.19
2023-01-17T06:49:36.298Z,100896.66
2023-01-17T06:52:07.063Z,100891.50
2023-01-17T06:54:37.762Z,100894.59
2023-01-17T06:57:08.090Z,100898.06
2023-01-17T06:59:38.295Z,100909.91
2023-01-17T07:02:11.847Z,100900.50
2023-01-17T07:04:42.658Z,100908.34
2023-01-17T07:07:13.642Z,100911.03
2023-01-17T07:09:44.990Z,100918.47
2023-01-17T07:12:15.576Z,100910.75
2023-01-17T07:14:46.722Z,100913.47
2023-01-17T07:17:17.098Z,100909.47
2023-01-17T07:19:48.371Z,100916.53
2023-01-17T07:22:18.746Z,100917.19
2023-01-17T07:24:49.626Z,100907.13
2023-01-17T07:27:19.892Z,100907.13
2023-01-17T07:29:51.159Z,100913.34
2023-01-17T07:32:22.289Z,100903.53
2023-01-17T07:34:53.366Z,100911.84
2023-01-17T07:37:24.651Z,100917.03
2023-01-17T07:39:55.749Z,100924.03
2023-01-17T07:42:26.538Z,100915.28
2023-01-17T07:44:58.283Z,100914.91
2023-01-17T07:47:28.921Z,100911.94
2023-01-17T07:49:59.209Z,100901.16
2023-01-17T07:52:29.565Z,100903.19
2023-01-17T07:55:00.175Z,100907.28
2023-01-17T07:57:31.324Z,100913.06
2023-01-17T08:00:01.644Z,100918.81
2023-01-17T08:02:42.628Z,100913.31
2023-01-17T08:05:13.246Z,100912.94
2023-01-17T08:07:43.871Z,100914.16
2023-01-17T08:10:18.844Z,100913.31
2023-01-17T08:12:50.409Z,100925.78
2023-01-17T08:15:21.441Z,100930.91
2023-01-17T08:17:55.625Z,100935.63
2023-01-17T08:20:28.109Z,100935.47
2023-01-17T08:22:58.750Z,100943.56
2023-01-17T08:25:29.345Z,100940.66
2023-01-17T08:28:00.705Z,100940.22
2023-01-17T08:30:31.344Z,100938.53
2023-01-17T08:33:02.529Z,100936.50
2023-01-17T08:35:34.929Z,100942.19
2023-01-17T08:38:06.432Z,100943.00
2023-01-17T08:40:37.274Z,100948.97
2023-01-17T08:43:07.956Z,100954.81
2023-01-17T08:45:38.923Z,100951.00
2023-01-17T08:48:10.798Z,100957.44
2023-01-17T08:50:41.239Z,100958.72
2023-01-17T08:53:12.335Z,100965.16
2023-01-17T08:55:43.273Z,100970.72
2023-01-17T08:58:13.986Z,100972.38
2023-01-17T09:00:45.142Z,100981.91
2023-01-17T09:03:19.047Z,100967.56
2023-01-17T09:05:49.387Z,100979.75
2023-01-17T09:08:20.103Z,100982.81
2023-01-17T09:10:50.404Z,100990.25
2023-01-17T09:13:20.662Z,100998.91
2023-01-17T09:15:51.444Z,100995.53
2023-01-17T09:18:22.075Z,101002.09
2023-01-17T09:20:55.858Z,101006.66
2023-01-17T09:23:31.621Z,101004.31
2023-01-17T09:26:02.306Z,101016.13
2023-01-17T09:28:33.305Z,101016.66
2023-01-17T09:31:09.259Z,101016.84
2023-01-17T09:33:42.513Z,101011.63
2023-01-17T09:36:13.420Z,101024.94
2023-01-17T09:38:44.030Z,101014.97
2023-01-17T09:41:35.613Z,101014.81
2023-01-17T09:44:29.111Z,101022.97
2023-01-17T09:47:14.715Z,101029.91
2023-01-17T09:49:47.248Z,101028.22
2023-01-17T09:52:22.313Z,101032.28
2023-01-17T09:54:53.592Z,101035.53
2023-01-17T09:57:43.157Z,101044.28
2023-01-17T10:00:22.343Z,101040.94
2023-01-17T10:02:56.568Z,101046.44
2023-01-17T10:05:35.387Z,101040.56
2023-01-17T10:08:46.440Z,101045.31
2023-01-17T10:11:23.460Z,101043.91
2023-01-17T10:14:02.061Z,101043.47
2023-01-17T10:16:59.849Z,101047.16
2023-01-17T10:19:40.146Z,101051.56
2023-01-17T10:22:23.154Z,101044.03
2023-01-17T10:25:17.215Z,101058.16
2023-01-17T10:28:00.267Z,101064.69
2023-01-17T10:30:36.655Z,101070.00
2023-01-17T10:33:17.952Z,101078.06
2023-01-17T10:36:13.856Z,101080.56
2023-01-17T10:38:49.140Z,101080.28
2023-01-17T10:41:27.975Z,101088.03
2023-01-17T10:44:18.969Z,101085.34
2023-01-17T10:47:28.847Z,101092.44
2023-01-17T10:50:00.345Z,101103.19
2023-01-17T10:52:57.504Z,101102.84
2023-01-17T10:55:37.286Z,101123.91
2023-01-17T10:58:14.429Z,101118.00
2023-01-17T11:01:03.737Z,101123.91
2023-01-17T11:03:34.262Z,101121.06
2023-01-17T11:06:24.001Z,101125.44
2023-01-17T11:08:59.605Z,101126.25
2023-01-17T11:11:32.937Z,101126.25
2023-01-17T11:14:14.265Z,101124.41
2023-01-17T11:16:45.527Z,101147.00
2023-01-17T11:19:37.125Z,101136.38
2023-01-17T11:22:10.370Z,101140.41
2023-01-17T11:24:54.421Z,101146.34
2023-01-17T11:27:34.643Z,101154.72
2023-01-17T11:30:20.847Z,101162.50
2023-01-17T11:32:58.571Z,101173.59
2023-01-17T11:35:32.861Z,101180.69
2023-01-17T11:38:12.062Z,101187.41
2023-01-17T11:40:45.043Z,101186.56
2023-01-17T11:43:23.789Z,101198.88
2023-01-17T11:46:24.975Z,101194.84
2023-01-17T11:49:00.991Z,101200.25
2023-01-17T11:51:42.554Z,101211.63
2023-01-17T11:54:45.432Z,101211.16
2023-01-17T11:57:38.275Z,101212.50
2023-01-17T12:00:32.269Z,101214.88
2023-01-17T12:03:41.743Z,101226.84
2023-01-17T12:06:21.402Z,101221.47
2023-01-17T12:09:06.924Z,101228.53
2023-01-17T12:12:04.438Z,101232.25
2023-01-17T12:14:57.448Z,101236.97
2023-01-17T12:17:37.997Z,101232.59
2023-01-17T12:20:19.268Z,101229.53
2023-01-17T12:23:05.272Z,101241.69
2023-01-17T12:25:57.166Z,101240.66
2023-01-17T12:28:53.760Z,101235.09
2023-01-17T12:31:34.510Z,101246.38
2023-01-17T12:34:22.919Z,101257.31
2023-01-17T12:37:05.196Z,101257.50
2023-01-17T12:39:42.854Z,101254.47
2023-01-17T12:42:22.839Z,101255.47
2023-01-17T12:45:09.665Z,101263.91
2023-01-17T12:47:45.470Z,101257.66
2023-01-17T12:50:38.302Z,101258.00
2023-01-17T12:53:32.652Z,101260.34
2023-01-17T12:56:12.883Z,101273.00
2023-01-17T12:58:50.920Z,101268.44
2023-01-17T13:01:40.760Z,101272.81
2023-01-17T13:04:20.208Z,101281.91
2023-01-17T13:07:00.337Z,101288.50
2023-01-17T13:09:41.715Z,101282.25
2023-01-17T13:12:17.794Z,101276.19
2023-01-17T13:14:48.862Z,101278.06
2023-01-17T13:17:28.763Z,101281.44
2023-01-17T13:20:00.271Z,101272.66
2023-01-17T13:22:32.272Z,101280.09
2023-01-17T13:25:34.118Z,101283.59
2023-01-17T13:28:08.605Z,101290.88
2023-01-17T13:31:11.599Z,101292.53
2023-01-17T13:34:00.259Z,101284.47
2023-01-17T13:36:53.942Z,101280.56
2023-01-17T13:39:43.825Z,101276.19
2023-01-17T13:42:32.098Z,101270.47
2023-01-17T13:45:10.203Z,101266.63
2023-01-17T13:47:42.599Z,101261.56
2023-01-17T13:50:37.707Z,101251.63
2023-01-17T13:53:44.239Z,101263.56
2023-01-17T13:56:20.140Z,101256.47
2023-01-17T13:58:52.603Z,101264.56
2023-01-17T14:01:26.155Z,101254.81
2023-01-17T14:04:03.271Z,101258.53
2023-01-17T14:06:46.049Z,101250.44
2023-01-17T14:09:25.661Z,101249.44
2023-01-17T14:12:06.437Z,101246.38
2023-01-17T14:14:42.875Z,101255.16
2023-01-17T14:17:51.902Z,101252.81
2023-01-17T14:20:29.079Z,101250.59
2023-01-17T14:23:02.885Z,101248.38
2023-01-17T14:25:40.963Z,101248.72
2023-01-17T14:28:32.002Z,101246.72
2023-01-17T14:31:04.342Z,101253.44
2023-01-17T14:33:39.458Z,101254.44
2023-01-17T14:36:24.202Z,101258.66
2023-01-17T14:38:55.201Z,101263.88
2023-01-17T14:41:28.625Z,101258.47
2023-01-17T14:44:02.036Z,101265.56
2023-01-17T14:46:35.414Z,101263.53
2023-01-17T14:49:08.615Z,101276.00
2023-01-17T14:51:39.918Z,101268.56
2023-01-17T14:54:23.291Z,101270.94
2023-01-17T14:56:56.944Z,101265.88
2023-01-17T14:59:27.759Z,101263.84
2023-01-17T15:02:08.137Z,101268.75
2023-01-17T15:04:40.114Z,101270.56
2023-01-17T15:07:17.545Z,101268.88
2023-01-17T15:09:52.947Z,101256.63
2023-01-17T15:12:23.628Z,101263.84
2023-01-17T15:14:59.358Z,101271.22
2023-01-17T15:17:30.886Z,101282.00
2023-01-17T15:20:03.030Z,101280.50
2023-01-17T15:22:34.807Z,101269.88
2023-01-17T15:25:05.314Z,101272.56
2023-01-17T15:27:36.612Z,101274.09
2023-01-17T15:30:08.437Z,101271.53
2023-01-17T15:32:40.283Z,101258.09
2023-01-17T15:35:29.443Z,101251.53
2023-01-17T15:38:02.262Z,101250.34
2023-01-17T15:40:34.115Z,101246.81
2023-01-17T15:43:07.461Z,101247.97
2023-01-17T15:45:38.161Z,101250.66
2023-01-17T15:48:42.432Z,101255.91
2023-01-17T15:51:13.893Z,101258.38
2023-01-17T15:53:45.019Z,101245.94
2023-01-17T15:56:33.320Z,101246.63
2023-01-17T15:59:28.769Z,101239.56
2023-01-17T16:02:00.255Z,101234.78
2023-01-17T16:04:35.989Z,101228.72
2023-01-17T16:07:35.286Z,101218.66
2023-01-17T16:10:18.685Z,101217.97
2023-01-17T16:12:54.292Z,101221.50
2023-01-17T16:15:26.391Z,101213.41
2023-01-17T16:18:03.989Z,101213.41
2023-01-17T16:20:42.474Z,101209.91
2023-01-17T16:23:12.820Z,101212.59
2023-01-17T16:25:45.347Z,101196.47
2023-01-17T16:28:15.569Z,101194.78
2023-01-17T16:30:47.084Z,101195.59
2023-01-17T16:33:17.684Z,101192.75
2023-01-17T16:35:48.585Z,101195.94
2023-01-17T16:38:20.703Z,101194.78
2023-01-17T16:40:51.288Z,101202.16
2023-01-17T16:43:22.226Z,101183.47
2023-01-17T16:45:54.819Z,101188.38
2023-01-17T16:48:25.555Z,101189.03
2023-01-17T16:50:56.113Z,101185.50
2023-01-17T16:53:28.502Z,101182.31
2023-01-17T16:56:00.877Z,101177.06
2023-01-17T16:58:31.429Z,101158.09
2023-01-17T17:01:01.703Z,101167.50
2023-01-17T17:03:32.458Z,101152.03
2023-01-17T17:06:03.318Z,101150.34
2023-01-17T17:08:36.158Z,101167.81
2023-01-17T17:11:15.607Z,101152.50
2023-01-17T17:13:48.388Z,101145.13
2023-01-17T17:16:24.224Z,101142.63
2023-01-17T17:19:02.775Z,101136.22
2023-01-17T17:21:38.000Z,101132.00
2023-01-17T17:24:08.594Z,101129.66
2023-01-17T17:26:40.359Z,101134.56
2023-01-17T17:29:13.652Z,101123.44
2023-01-17T17:31:44.793Z,101130.50
2023-01-17T17:34:16.413Z,101128.81
2023-01-17T17:36:47.600Z,101123.44
2023-01-17T17:39:18.204Z,101120.75
2023-01-17T17:41:48.735Z,101123.78
2023-01-17T17:44:19.298Z,101117.38
2023-01-17T17:46:52.260Z,101105.94
2023-01-17T17:49:23.619Z,101105.78
2023-01-17T17:51:54.157Z,101101.91
2023-01-17T17:54:27.032Z,101092.97
2023-01-17T17:56:58.157Z,101088.47
2023-01-17T17:59:28.539Z,101090.47
2023-01-17T18:02:00.552Z,101102.59
2023-01-17T18:04:31.063Z,101097.53
2023-01-17T18:07:01.883Z,101092.84
2023-01-17T18:09:32.394Z,101094.66
2023-01-17T18:12:03.869Z,101100.91
2023-01-17T18:14:34.887Z,101093.84
2023-01-17T18:17:05.174Z,101085.78
2023-01-17T18:19:35.741Z,101078.03
2023-01-17T18:22:06.027Z,101078.03
2023-01-17T18:24:37.507Z,101067.97
2023-01-17T18:27:11.220Z,101067.44
2023-01-17T18:29:41.553Z,101069.97
2023-01-17T18:32:14.001Z,101060.22
2023-01-17T18:34:45.420Z,101065.59
2023-01-17T18:37:16.089Z,101071.81
2023-01-17T18:39:49.674Z,101066.44
2023-01-17T18:42:22.471Z,101056.19
2023-01-17T18:44:54.042Z,101063.91
2023-01-17T18:47:24.533Z,101060.22
2023-01-17T18:49:55.036Z,101063.91
2023-01-17T18:52:25.654Z,101054.31
2023-01-17T18:54:56.255Z,101053.31
2023-01-17T18:57:26.555Z,101058.00
2023-01-17T18:59:58.060Z,101066.94
2023-01-17T19:02:28.362Z,101058.34
2023-01-17T19:04:58.976Z,101066.25
2023-01-17T19:07:30.627Z,101064.56
2023-01-17T19:10:00.978Z,101066.59
2023-01-17T19:12:31.470Z,101062.91
2023-01-17T19:15:01.646Z,101062.91
2023-01-17T19:17:32.670Z,101066.59
2023-01-17T19:20:06.085Z,101071.97
2023-01-17T19:22:36.170Z,101073.97
2023-01-17T19:25:07.468Z,101071.97
2023-01-17T19:27:37.663Z,101071.28
2023-01-17T19:30:12.881Z,101071.56
2023-01-17T19:32:43.431Z,101069.56
2023-01-17T19:35:14.697Z,101068.59
2023-01-17T19:37:49.730Z,101074.09
2023-01-17T19:40:21.697Z,101075.94
2023-01-17T19:42:52.089Z,101071.56
2023-01-17T19:45:22.879Z,101069.91
2023-01-17T19:47:53.233Z,101075.94
2023-01-17T19:50:24.351Z,101071.91
2023-01-17T19:52:54.926Z,101080.28
2023-01-17T19:55:26.897Z,101078.63
2023-01-17T19:57:57.458Z,101080.13
2023-01-17T20:00:30.399Z,101075.75
2023-01-17T20:03:01.059Z,101076.59
2023-01-17T20:05:33.224Z,101072.91
2023-01-17T20:08:03.839Z,101073.72
2023-01-17T20:10:34.593Z,101075.59
2023-01-17T20:13:05.806Z,101074.91
2023-01-17T20:15:36.818Z,101074.91
2023-01-17T20:18:07.097Z,101070.22
2023-01-17T20:20:55.793Z,101068.69
2023-01-17T20:23:27.147Z,101069.53
2023-01-17T20:25:59.808Z,101070.56
2023-01-17T20:28:31.198Z,101075.25
2023-01-17T20:31:08.295Z,101085.13
2023-01-17T20:33:38.513Z,101084.31
2023-01-17T20:36:11.524Z,101082.31
2023-01-17T20:38:46.025Z,101081.63
2023-01-17T20:41:20.185Z,101075.38
2023-01-17T20:43:55.212Z,101076.41
2023-01-17T20:46:28.788Z,101082.63
2023-01-17T20:49:01.971Z,101086.00
2023-01-17T20:51:39.283Z,101090.50
2023-01-17T20:54:13.815Z,101091.00
2023-01-17T20:56:47.768Z,101086.31
2023-01-17T20:59:20.680Z,101091.84
2023-01-17T21:01:51.712Z,101105.81
2023-01-17T21:04:26.644Z,101113.50
2023-01-17T21:06:57.248Z,101119.41
2023-01-17T21:09:28.391Z,101115.19
2023-01-17T21:12:02.030Z,101117.72
2023-01-17T21:14:32.606Z,101122.25
2023-01-17T21:17:02.849Z,101129.31
2023-01-17T21:19:33.547Z,101131.16
2023-01-17T21:22:06.410Z,101142.06
2023-01-17T21:24:37.576Z,101141.38
2023-01-17T21:27:08.256Z,101142.06
2023-01-17T21:29:39.517Z,101148.28
2023-01-17T21:32:10.080Z,101151.13
2023-01-17T21:34:40.524Z,101147.78
2023-01-17T21:37:10.802Z,101147.78
2023-01-17T21:39:41.342Z,101152.13
2023-01-17T21:42:11.528Z,101154.81
2023-01-17T21:44:42.033Z,101165.56
2023-01-17T21:47:12.607Z,101157.50
2023-01-17T21:49:46.638Z,101165.56
2023-01-17T21:52:19.946Z,101182.38
2023-01-17T21:55:09.195Z,101172.81
2023-01-17T21:57:57.957Z,101178.00
2023-01-17T22:00:28.452Z,101185.06
2023-01-17T22:02:59.541Z,101186.06
2023-01-17T22:05:30.392Z,101183.56
2023-01-17T22:08:12.396Z,101187.06
2023-01-17T22:10:46.852Z,101193.63
2023-01-17T22:13:19.936Z,101201.84
2023-01-17T22:16:00.176Z,101209.44
2023-01-17T22:18:31.666Z,101216.50
2023-01-17T22:21:06.468Z,101218.00
2023-01-17T22:23:37.178Z,101214.13
2023-01-17T22:26:13.065Z,101213.63
2023-01-17T22:28:44.481Z,101222.88
2023-01-17T22:31:24.639Z,101228.81
2023-01-17T22:34:01.440Z,101236.88
2023-01-17T22:36:34.451Z,101232.81
2023-01-17T22:39:05.602Z,101222.88
2023-01-17T22:41:39.380Z,101228.81
2023-01-17T22:44:10.249Z,101231.50
2023-01-17T22:46:42.353Z,101242.25
2023-01-17T22:49:16.755Z,101244.94
2023-01-17T22:51:47.832Z,101241.25
2023-01-17T22:54:20.373Z,101252.00
2023-01-17T22:56:51.088Z,101260.88
2023-01-17T22:59:21.607Z,101259.06
2023-01-17T23:01:52.801Z,101269.81
2023-01-17T23:04:23.556Z,101270.50
2023-01-17T23:06:54.474Z,101274.88
2023-01-17T23:09:25.687Z,101276.88
2023-01-17T23:11:57.276Z,101269.81
2023-01-17T23:14:56.814Z,101267.81
2023-01-17T23:17:45.495Z,101272.91
2023-01-17T23:20:16.014Z,101274.88
2023-01-17T23:22:46.652Z,101281.25
2023-01-17T23:25:17.122Z,101288.03
2023-01-17T23:28:09.250Z,101288.38
2023-01-17T23:30:41.932Z,101293.97
2023-01-17T23:33:14.992Z,101297.81
2023-01-17T23:35:47.420Z,101295.66
2023-01-17T23:38:31.478Z,101305.25
2023-01-17T23:41:21.851Z,101307.25
2023-01-17T23:43:57.070Z,101308.63
2023-01-17T23:46:28.343Z,101321.06
2023-01-17T23:48:58.528Z,101322.75
2023-01-17T23:51:30.489Z,101324.75
2023-01-17T23:54:06.229Z,101344.59
2023-01-17T23:56:36.530Z,101342.91
2023-01-17T23:59:39.285Z,101344.09
